Terminal Aerodrome Forecast
Issued by NWS

Home | Current Version | Previous Version | Graphics & Text | Print | Product List | Glossary On
Versions: 1 2 3 4 5 6 7 8 9 10 11 12 13
000
FTUS45 KGGW 232050 AAA
TAFOLF
TAF AMD
KOLF 232050Z 2321/2418 VRB04KT P6SM BKN070 OVC100
     FM240800 VRB03KT P6SM OVC040
     FM241500 04005KT P6SM BKN030=

USA.gov is the U.S. government's official web portal to all federal, state and local government web resources and services.